Carman, Canada
Current Conditions -  °F | °C
As of 3:00 AM on Saturday 22 Nov 2014 (Local Time) from CYWG Reporting Station
Overcast Overcast  
Wind Chill: -4°   Ceiling: 2600
Heat Index: -1°   Visibility: 15mi
Dew Point: -3°   Wind: 6mph
Humidity: 86%   Direction: 360°N
Pressure: 29.61"   Gusts: NA
Location:  49.51°N, 98°W
Report Text: CYWG 220900Z 36005KT 15SM SCT013 OVC026 M01/M03 A2961 RMK SC4SC4 SLP038
Loading
Personal Weather Stations






























Interactive Weather Map New forecast layout! Learn more

10-Day Weather Forecast

Advertisements
Track Severe Weather on mobile